METAR (acronimo di METeorological Air Report) è un messaggio meteo emesso nella maggior parte dei casi in ambito aeroportuale

LIPF - Ferrara, It
Distanza dalla Stazione: 8 km
Ultimo Aggiornamento: Domenica 19 Maggio 2019 19:55 CEST
Dati non Recenti
Prevalentemente Nuvoloso
Prevalentemente Nuvoloso
 Wind from calm
Vento: Calma
Temperatura: 16°C
Punto di Rugiada: 15°C
Umidità: 94%
Barometro: 1004 hPa
Nuvole: Prevalentemente Nuvoloso
Visibilità: 7 km
Nuvole nel Dettaglio: Qualche Nuvola 457 m
Parzialmente Nuvoloso 914 m
Prevalentemente Nuvoloso 1829 m
2019/05/19 17:55 LIPF 191755Z 00000KT 7000 FEW015TCU SCT030 BKN060 16/15 Q1004
LIPE - Bologna Borgo Panigale, It
Distanza dalla Stazione: 46 km
Ultimo Aggiornamento: Lunedì 20 Maggio 2019 05:50 CEST
Prevalentemente Nuvoloso
Prevalentemente Nuvoloso
 Wind from Ovest-Sud-Ovest
Vento: Ovest-Sud-Ovest 9 km/h
Temperatura: 13°C
Punto di Rugiada: 12°C
Umidità: 94%
Barometro: 1004 hPa
Nuvole: Prevalentemente Nuvoloso
Visibilità: 10 km
Nuvole nel Dettaglio: Prevalentemente Nuvoloso 1829 m
2019/05/20 03:50 LIPE 200350Z 24005KT 9999 BKN060 13/12 Q1004
LIMF - Torino Caselle, It
Distanza dalla Stazione: 320 km
Ultimo Aggiornamento: Lunedì 20 Maggio 2019 05:50 CEST
Prevalentemente Nuvoloso
Prevalentemente Nuvoloso
 Wind from Nord-Nord-Ovest
Vento: Nord-Nord-Ovest 4 km/h
Temperatura: 11°C
Punto di Rugiada: 11°C
Umidità: 100%
Barometro: 1004 hPa
Nuvole: Prevalentemente Nuvoloso
Visibilità: 7 km
Nuvole nel Dettaglio: Prevalentemente Nuvoloso 366 m
2019/05/20 03:50 LIMF 200350Z 33002KT 7000 BKN012 11/11 Q1004
 
LIML - Milano Malpensa, It
Distanza dalla Stazione: 249 km
Ultimo Aggiornamento: Lunedì 20 Maggio 2019 05:50 CEST
Bruma, Prevalentemente Nuvoloso
Bruma, Prevalentemente Nuvoloso
 Wind from varies
Vento: variabile 4 km/h
Temperatura: 13°C
Punto di Rugiada: 13°C
Umidità: 100%
Barometro: 1004 hPa
Condizioni: Bruma
Nuvole: Prevalentemente Nuvoloso
Visibilità: 3 km
Nuvole nel Dettaglio: Prevalentemente Nuvoloso 305 m
2019/05/20 03:50 LIML 200350Z VRB02KT 2500 BR BKN010 13/13 Q1004 NOSIG
LIME - Bergamo Orio al Serio, It
Distanza dalla Stazione: 181 km
Ultimo Aggiornamento: Lunedì 20 Maggio 2019 05:50 CEST
Pioggia Leggera, Bruma, Prevalentemente Nuvoloso
Pioggia Leggera, Bruma, Prevalentemente Nuvoloso
 Wind from varies
Vento: variabile 2 km/h
Temperatura: 12°C
Punto di Rugiada: 12°C
Umidità: 100%
Barometro: 1004 hPa
Condizioni: Pioggia Leggera, Bruma
Nuvole: Prevalentemente Nuvoloso
Visibilità: 2 km
Nuvole nel Dettaglio: Prevalentemente Nuvoloso 122 m
2019/05/20 03:50 LIME 200350Z VRB01KT 1500 -RA BR BKN004 12/12 Q1004 NOSIG
LIPZ - Venezia Tessera, It
Distanza dalla Stazione: 93 km
Ultimo Aggiornamento: Lunedì 20 Maggio 2019 05:50 CEST
Shallow fog, Prevalentemente Nuvoloso
Shallow fog, Prevalentemente Nuvoloso
 Wind from Sud-Sud-Est
Vento: Sud-Sud-Est 4 km/h
Temperatura: 14°C
Punto di Rugiada: 13°C
Umidità: 94%
Barometro: 1003 hPa
Condizioni: Shallow Fog
Nuvole: Prevalentemente Nuvoloso
Visibilità: 10 km
Nuvole nel Dettaglio: Qualche Nuvola 152 m
Prevalentemente Nuvoloso 914 m
2019/05/20 03:50 LIPZ 200350Z 15002KT 9999 MIFG FEW005 BKN030 14/13 Q1003 NOSIG
 
LIVT - Trieste, It
Distanza dalla Stazione: 179 km
Ultimo Aggiornamento: Domenica 19 Maggio 2019 19:55 CEST
Dati non Recenti
Pioggia, Parzialmente Nuvoloso
Pioggia, Parzialmente Nuvoloso
 Wind from Est-Sud-Est
Vento: Est-Sud-Est 6 km/h
Temperatura: 14°C
Punto di Rugiada: 13°C
Umidità: 94%
Barometro: 1004 hPa
Condizioni: Pioggia
Nuvole: Parzialmente Nuvoloso
Visibilità: 10 km
Nuvole nel Dettaglio: Prevalentemente Nuvoloso 762 m
Parzialmente Nuvoloso 914 m
2019/05/19 17:55 LIVT 191755Z 11003KT 9999 RA BKN025 SCT030 14/13 Q1004
LIMJ - Genova, It
Distanza dalla Stazione: 229 km
Ultimo Aggiornamento: Lunedì 20 Maggio 2019 05:50 CEST
Pioggia Leggera, Prevalentemente Nuvoloso
Pioggia Leggera, Prevalentemente Nuvoloso
 Wind from Est-Nord-Est
Vento: Est-Nord-Est 6 km/h
Temperatura: 14°C
Punto di Rugiada: 13°C
Umidità: 94%
Barometro: 1005 hPa
Condizioni: Pioggia Leggera
Nuvole: Prevalentemente Nuvoloso
Visibilità: 10 km
Nuvole nel Dettaglio: Qualche Nuvola 335 m
Parzialmente Nuvoloso 579 m
Prevalentemente Nuvoloso 1829 m
2019/05/20 03:50 LIMJ 200350Z 06003KT 9999 -RA FEW011 SCT019 BKN060 14/13 Q1005
LIRQ - Firenze Amerigo Vespucci, It
Distanza dalla Stazione: 119 km
Ultimo Aggiornamento: Lunedì 20 Maggio 2019 05:50 CEST
Parzialmente Nuvoloso
Parzialmente Nuvoloso
 Wind from Sud-Est
Vento: Sud-Est 7 km/h
Temperatura: 13°C
Punto di Rugiada: 11°C
Umidità: 88%
Barometro: 1006 hPa
Nuvole: Parzialmente Nuvoloso
Visibilità: 10 km
Nuvole nel Dettaglio: Parzialmente Nuvoloso 914 m
2019/05/20 03:50 LIRQ 200350Z 14004KT 9999 SCT030 13/11 Q1006
 
LIPY - Ancona, It
Distanza dalla Stazione: 189 km
Ultimo Aggiornamento: Lunedì 20 Maggio 2019 05:50 CEST
Prevalentemente Nuvoloso
Prevalentemente Nuvoloso
 Wind from varies
Vento: variabile 4 km/h
Temperatura: 13°C
Punto di Rugiada: 10°C
Umidità: 82%
Barometro: 1005 hPa
Nuvole: Prevalentemente Nuvoloso
Visibilità: 10 km
Nuvole nel Dettaglio: Prevalentemente Nuvoloso 1219 m
2019/05/20 03:50 LIPY 200350Z VRB02KT 9999 BKN040 13/10 Q1005
LIBP - Pescara, It
Distanza dalla Stazione: 333 km
Ultimo Aggiornamento: Lunedì 20 Maggio 2019 05:50 CEST
Qualche Nuvola
Qualche Nuvola
 Wind from Sud-Ovest
Vento: Sud-Ovest 20 km/h
Temperatura: 15°C
Punto di Rugiada: 6°C
Umidità: 55%
Barometro: 1006 hPa
Nuvole: Qualche Nuvola
Visibilità: 10 km
Nuvole nel Dettaglio: Qualche Nuvola 3658 m
2019/05/20 03:50 LIBP 200350Z AUTO 23011KT 9999 FEW120/// 15/06 Q1006
LIRF - Roma-Fiumicino, It
Distanza dalla Stazione: 334 km
Ultimo Aggiornamento: Lunedì 20 Maggio 2019 05:50 CEST
Sereno
Sereno
 Wind from varies
Vento: variabile 6 km/h
Temperatura: 12°C
Punto di Rugiada: 11°C
Umidità: 94%
Barometro: 1008 hPa
Condizioni: Sereno
Visibilità: superiore a 10 km
2019/05/20 03:50 LIRF 200350Z VRB03KT CAVOK 12/11 Q1008 NOSIG
 
LIRN - Napoli Capodichino, It
Distanza dalla Stazione: 494 km
Ultimo Aggiornamento: Lunedì 20 Maggio 2019 05:50 CEST
Prevalentemente Nuvoloso
Prevalentemente Nuvoloso
 Wind from Sud-Sud-Ovest
Vento: Sud-Sud-Ovest 9 km/h
Temperatura: 15°C
Punto di Rugiada: 12°C
Umidità: 82%
Barometro: 1009 hPa
Nuvole: Prevalentemente Nuvoloso
Visibilità: 10 km
Nuvole nel Dettaglio: Parzialmente Nuvoloso 762 m
Prevalentemente Nuvoloso 1829 m
2019/05/20 03:50 LIRN 200350Z 21005KT 9999 SCT025 BKN060 15/12 Q1009 NOSIG
LIBD - Bari Palese, It
Distanza dalla Stazione: 594 km
Ultimo Aggiornamento: Lunedì 20 Maggio 2019 05:50 CEST
Sereno
Sereno
 Wind from Sud-Ovest
Vento: Sud-Ovest 11 km/h
Temperatura: 12°C
Punto di Rugiada: 7°C
Umidità: 72%
Barometro: 1008 hPa
Condizioni: Sereno
Visibilità: superiore a 10 km
2019/05/20 03:50 LIBD 200350Z 23006KT CAVOK 12/07 Q1008
LIBG - Taranto Grottaglie, It
Distanza dalla Stazione: 670 km
Ultimo Aggiornamento: Domenica 19 Maggio 2019 19:50 CEST
Dati non Recenti
Qualche Nuvola
Qualche Nuvola
 Wind from varies
Vento: variabile 4 km/h
Temperatura: 18°C
Punto di Rugiada: 15°C
Umidità: 83%
Barometro: 1006 hPa
Nuvole: Qualche Nuvola
Visibilità: 10 km
Nuvole nel Dettaglio: Qualche Nuvola 1219 m
2019/05/19 17:50 LIBG 191750Z VRB02KT 9999 FEW040 18/15 Q1006
 
LICR - Reggio Calabria, It
Distanza dalla Stazione: 819 km
Ultimo Aggiornamento: Lunedì 20 Maggio 2019 05:50 CEST
Parzialmente Nuvoloso
Parzialmente Nuvoloso
 Wind from Nord-Est
Vento: Nord-Est 11 km/h
Temperatura: 14°C
Punto di Rugiada: 11°C
Umidità: 82%
Barometro: 1011 hPa
Nuvole: Parzialmente Nuvoloso
Visibilità: 10 km
Nuvole nel Dettaglio: Qualche Nuvola 914 m
Parzialmente Nuvoloso 1219 m
2019/05/20 03:50 LICR 200350Z 05006KT 9999 FEW030 SCT040 14/11 Q1011
LICJ - Palermo Punta Raisi, It
Distanza dalla Stazione: 762 km
Ultimo Aggiornamento: Lunedì 20 Maggio 2019 05:50 CEST
Sereno
Sereno
 Wind from Sud
Vento: Sud 24 km/h
Temperatura: 16°C
Punto di Rugiada: 11°C
Umidità: 72%
Barometro: 1011 hPa
Condizioni: Sereno
Visibilità: superiore a 10 km
2019/05/20 03:50 LICJ 200350Z 19013KT CAVOK 16/11 Q1011
LICC - Catania Fontanarossa, It
Distanza dalla Stazione: 866 km
Ultimo Aggiornamento: Lunedì 20 Maggio 2019 05:50 CEST
Prevalentemente Nuvoloso
Prevalentemente Nuvoloso
 Wind from Ovest-Sud-Ovest
Vento: Ovest-Sud-Ovest 11 km/h
Temperatura: 15°C
Punto di Rugiada: 12°C
Umidità: 82%
Barometro: 1011 hPa
Nuvole: Prevalentemente Nuvoloso
Visibilità: 10 km
Nuvole nel Dettaglio: Qualche Nuvola 1067 m
Prevalentemente Nuvoloso 2743 m
2019/05/20 03:50 LICC 200350Z 24006KT 9999 FEW035 BKN090 15/12 Q1011
 
LIEE - Cagliari Elmas, It
Distanza dalla Stazione: 655 km
Ultimo Aggiornamento: Lunedì 20 Maggio 2019 05:50 CEST
Pioggia Leggera, Drizzle, Parzialmente Nuvoloso
Pioggia Leggera, Drizzle, Parzialmente Nuvoloso
 Wind from Nord-Ovest
Vento: Nord-Ovest 11 km/h
Temperatura: 13°C
Punto di Rugiada: 10°C
Umidità: 82%
Barometro: 1010 hPa
Condizioni: Pioggia Leggera, Drizzle
Nuvole: Parzialmente Nuvoloso
Visibilità: 10 km
Nuvole nel Dettaglio: Parzialmente Nuvoloso 1829 m
2019/05/20 03:50 LIEE 200350Z 31006KT 9999 -RADZ SCT060 13/10 Q1010
LIEO - Olbia, It
Distanza dalla Stazione: 463 km
Ultimo Aggiornamento: Lunedì 20 Maggio 2019 05:50 CEST
Sereno
Sereno
 Wind from Ovest-Sud-Ovest
Vento: Ovest-Sud-Ovest 15 km/h
Temperatura: 12°C
Punto di Rugiada: 11°C
Umidità: 94%
Barometro: 1008 hPa
Condizioni: Sereno
Visibilità: superiore a 10 km
2019/05/20 03:50 LIEO 200350Z 24008KT CAVOK 12/11 Q1008
LICG - Pantelleria, It
Distanza dalla Stazione: 893 km
Ultimo Aggiornamento: Domenica 19 Maggio 2019 19:50 CEST
Dati non Recenti
Sereno
Sereno
 Wind from Nord-Est
Vento: Nord-Est 11 km/h
Temperatura: 15°C
Punto di Rugiada: 9°C
Umidità: 68%
Barometro: 1011 hPa
Condizioni: Sereno
Visibilità: superiore a 10 km
2019/05/19 17:50 LICG 191750Z 04006KT CAVOK 15/09 Q1011